Time;durP1;ratioP1;P1;durP2;ratioP2;P2;SDS_P1;SDS_P2;PMS_P1;PMS_P2;Temp;Humidity;BMP_temperature;BMP_pressure;BME280_temperature;BME280_humidity;BME280_pressure;Samples;Min_cycle;Max_cycle;Signal;HPM_P1;HPM_P2
2023/07/10 00:00:34;;;;;;;58.92;29.92;;;;;;;19.76;77.30;100377.13;5083731;28;20131;-16
2023/07/10 00:02:59;;;;;;;26.08;14.60;;;;;;;19.84;77.76;100369.25;5084334;28;20026;-17
2023/07/10 00:05:25;;;;;;;24.92;14.50;;;;;;;19.85;77.61;100372.75;5084159;28;20039;-17
2023/07/10 00:07:53;;;;;;;26.88;15.05;;;;;;;20.16;76.33;100367.28;5083933;28;20393;-17
2023/07/10 00:10:21;;;;;;;28.73;14.98;;;;;;;20.64;73.49;100365.75;5084337;28;20031;-25
2023/07/10 00:12:46;;;;;;;28.85;16.58;;;;;;;20.30;74.33;100379.13;5084163;28;20596;-16
2023/07/10 00:15:18;;;;;;;24.15;14.63;;;;;;;20.34;74.29;100363.16;5083795;28;20509;-17
2023/07/10 00:17:45;;;;;;;17.63;10.82;;;;;;;20.25;75.05;100366.44;5084336;28;20031;-17
2023/07/10 00:20:19;;;;;;;26.50;15.10;;;;;;;19.89;76.41;100363.00;5084034;28;20036;-19
2023/07/10 00:22:45;;;;;;;35.17;17.38;;;;;;;19.96;76.16;100366.25;5083925;28;20036;-17
2023/07/10 00:25:15;;;;;;;45.33;22.27;;;;;;;20.11;75.15;100364.59;5084007;28;20028;-20
2023/07/10 00:27:41;;;;;;;65.22;33.47;;;;;;;20.17;75.08;100364.28;5083762;28;20125;-16
2023/07/10 00:30:15;;;;;;;53.42;27.88;;;;;;;19.88;75.50;100350.56;5084315;28;20051;-16
2023/07/10 00:32:43;;;;;;;50.97;26.23;;;;;;;19.94;75.48;100370.28;5085783;28;20545;-19
2023/07/10 00:35:08;;;;;;;46.60;22.67;;;;;;;19.17;79.77;100373.81;5087536;28;20028;-17
2023/07/10 00:37:38;;;;;;;41.45;21.88;;;;;;;18.93;81.94;100361.88;5087458;28;20028;-17
2023/07/10 00:40:19;;;;;;;36.88;19.58;;;;;;;19.10;80.76;100357.03;5087471;28;20047;-17
2023/07/10 00:42:46;;;;;;;39.50;19.88;;;;;;;19.67;77.80;100371.38;5087502;28;20184;-16
2023/07/10 00:45:15;;;;;;;38.88;19.00;;;;;;;19.37;79.67;100373.03;5087197;28;20035;-16
2023/07/10 00:47:48;;;;;;;34.38;20.00;;;;;;;20.03;76.68;100383.00;5087468;28;20539;-21
2023/07/10 00:50:21;;;;;;;39.08;20.10;;;;;;;20.11;76.51;100378.13;5087441;28;20027;-17
2023/07/10 00:52:51;;;;;;;30.73;18.15;;;;;;;19.97;76.45;100381.41;5087138;28;20020;-16
2023/07/10 00:55:39;;;;;;;26.67;13.43;;;;;;;19.73;77.95;100385.75;5087387;28;20503;-17
2023/07/10 00:58:25;;;;;;;18.15;9.23;;;;;;;19.72;77.69;100384.16;5086850;28;20107;-16
2023/07/10 01:01:07;;;;;;;12.40;7.97;;;;;;;19.31;79.41;100381.38;5087390;28;20042;-16
2023/07/10 01:03:34;;;;;;;9.30;6.15;;;;;;;19.34;78.35;100356.53;5086955;28;20109;-16
2023/07/10 01:06:15;;;;;;;9.87;5.90;;;;;;;19.31;78.37;100370.56;5086740;28;20040;-17
2023/07/10 01:08:48;;;;;;;9.68;5.85;;;;;;;19.18;78.36;100363.81;5087142;28;20036;-17
2023/07/10 01:11:17;;;;;;;10.63;5.57;;;;;;;19.44;77.61;100378.16;5086607;28;20066;-17
2023/07/10 01:13:46;;;;;;;9.32;5.93;;;;;;;19.16;78.08;100358.66;5087279;28;20837;-19
2023/07/10 01:16:12;;;;;;;11.95;7.00;;;;;;;19.06;79.26;100372.16;5086837;28;20012;-20
2023/07/10 01:18:41;;;;;;;11.43;7.80;;;;;;;18.73;81.02;100374.22;5086876;28;20031;-16
2023/07/10 01:21:10;;;;;;;13.40;8.50;;;;;;;18.75;80.73;100376.66;5086542;28;20035;-16
2023/07/10 01:23:36;;;;;;;16.00;8.80;;;;;;;18.51;81.03;100376.31;5068337;28;20028;-16
2023/07/10 01:26:03;;;;;;;21.98;12.98;;;;;;;18.58;80.88;100371.47;5086651;28;20850;-16
2023/07/10 01:28:35;;;;;;;21.13;12.82;;;;;;;19.15;78.02;100375.97;5086090;28;20071;-16
2023/07/10 01:31:05;;;;;;;24.88;15.48;;;;;;;19.14;78.34;100360.81;5086371;28;20684;-16
2023/07/10 01:33:42;;;;;;;49.22;25.88;;;;;;;19.36;78.02;100373.28;5066138;28;20033;-17
2023/07/10 01:36:14;;;;;;;54.63;28.20;;;;;;;19.56;77.00;100365.19;5066527;28;20044;-17
2023/07/10 01:38:48;;;;;;;79.65;39.20;;;;;;;19.46;77.32;100381.41;5066420;28;20024;-17
2023/07/10 01:41:36;;;;;;;70.45;38.00;;;;;;;19.35;77.86;100379.78;5065681;28;20123;-17
2023/07/10 01:44:11;;;;;;;52.35;26.40;;;;;;;19.18;78.61;100374.63;5065856;28;20045;-16
2023/07/10 01:46:36;;;;;;;29.88;16.48;;;;;;;19.13;78.64;100372.72;5065685;28;20097;-16
2023/07/10 01:49:02;;;;;;;28.00;14.68;;;;;;;19.17;79.21;100381.13;5066099;28;20995;-16
2023/07/10 01:51:27;;;;;;;25.13;13.65;;;;;;;19.13;79.75;100367.31;5065666;28;20135;-16
2023/07/10 01:53:59;;;;;;;18.13;11.05;;;;;;;19.01;79.58;100364.06;5065750;28;20028;-16
2023/07/10 01:56:24;;;;;;;15.25;8.98;;;;;;;18.84;80.64;100367.81;5065774;28;20678;-17
2023/07/10 01:59:00;;;;;;;;;;;;;;;;;;;;;
2023/07/10 02:01:25;;;;;;;18.83;8.65;;;;;;;18.74;81.28;100361.53;5061827;28;20840;-16
2023/07/10 02:03:54;;;;;;;12.75;8.02;;;;;;;18.49;82.13;100368.50;5065445;28;20046;-16
2023/07/10 02:06:20;;;;;;;12.95;6.53;;;;;;;18.26;83.35;100354.31;5065428;28;20078;-18
2023/07/10 02:08:45;;;;;;;11.48;6.63;;;;;;;18.18;83.80;100368.31;5065193;28;20033;-18
2023/07/10 02:11:14;;;;;;;12.35;7.55;;;;;;;18.33;82.87;100364.91;5065329;28;20024;-16
2023/07/10 02:13:40;;;;;;;13.25;7.47;;;;;;;18.25;81.95;100351.91;5065549;28;20757;-17
2023/07/10 02:16:11;;;;;;;12.50;7.03;;;;;;;18.38;82.04;100369.50;5065954;28;20024;-17
2023/07/10 02:18:36;;;;;;;12.77;7.55;;;;;;;18.43;81.35;100374.94;5065292;28;20036;-16
2023/07/10 02:21:02;;;;;;;10.93;6.32;;;;;;;18.15;82.42;100373.44;5065438;28;20086;-17
2023/07/10 02:23:30;;;;;;;9.93;6.82;;;;;;;18.01;83.74;100376.59;5064867;28;20029;-17
2023/07/10 02:25:55;;;;;;;;;;;;;;;18.34;81.44;100366.50;5066081;28;20028;-18
2023/07/10 02:28:21;;;;;;;17.33;8.95;;;;;;;18.32;81.60;100352.47;5065097;28;19916;-18
2023/07/10 02:30:47;;;;;;;16.30;8.40;;;;;;;18.51;80.31;100382.53;5064971;28;20098;-17
2023/07/10 02:33:12;;;;;;;17.25;9.50;;;;;;;18.69;79.59;100367.72;5065435;28;20029;-17
2023/07/10 02:35:38;;;;;;;38.20;21.02;;;;;;;18.42;79.15;100357.91;5065157;28;20566;-16
2023/07/10 02:38:04;;;;;;;58.97;29.60;;;;;;;18.70;78.49;100369.38;5064902;28;20028;-16
2023/07/10 02:40:29;;;;;;;83.63;36.17;;;;;;;18.16;80.47;100373.16;5064990;28;20028;-18
2023/07/10 02:42:54;;;;;;;69.22;31.83;;;;;;;18.06;81.27;100368.53;5064325;28;20028;-16
2023/07/10 02:45:20;;;;;;;38.83;18.67;;;;;;;18.21;80.96;100383.19;5064991;28;20025;-17
2023/07/10 02:47:45;;;;;;;34.05;16.80;;;;;;;18.23;81.05;100368.34;5064839;28;20024;-20
2023/07/10 02:50:11;;;;;;;34.85;16.30;;;;;;;18.40;79.48;100370.84;5065061;28;20017;-17
2023/07/10 02:52:37;;;;;;;30.85;14.30;;;;;;;17.95;80.83;100356.06;5064589;28;20417;-17
2023/07/10 02:55:03;;;;;;;17.10;9.65;;;;;;;17.94;81.96;100375.19;5063815;28;20029;-16
2023/07/10 02:57:28;;;;;;;18.13;9.57;;;;;;;17.87;82.83;100383.53;5064454;28;20066;-16
2023/07/10 02:59:54;;;;;;;20.88;9.63;;;;;;;17.89;82.68;100385.97;5064638;28;20735;-16
2023/07/10 03:02:19;;;;;;;19.38;8.95;;;;;;;17.89;81.77;100381.38;5064427;28;20024;-17
2023/07/10 03:04:47;;;;;;;20.05;9.82;;;;;;;18.21;81.51;100386.69;5064788;28;20032;-16
2023/07/10 03:07:12;;;;;;;40.88;12.93;;;;;;;18.26;80.35;100392.13;5064430;28;20029;-17
2023/07/10 03:09:38;;;;;;;33.55;13.57;;;;;;;18.40;79.94;100395.16;5064637;28;20055;-16
2023/07/10 03:12:04;;;;;;;29.77;11.75;;;;;;;18.28;80.29;100389.97;5064349;28;20033;-19
2023/07/10 03:14:29;;;;;;;18.13;8.40;;;;;;;18.39;79.22;100393.56;5064162;28;20058;-16
2023/07/10 03:16:54;;;;;;;25.27;10.02;;;;;;;18.65;78.37;100388.25;5065103;28;20032;-16
2023/07/10 03:19:23;;;;;;;17.65;8.07;;;;;;;18.52;79.33;100399.53;5064266;28;20105;-16
2023/07/10 03:21:48;;;;;;;18.50;8.15;;;;;;;18.45;79.17;100406.00;5064263;28;20036;-17
2023/07/10 03:24:14;;;;;;;15.07;7.28;;;;;;;18.60;78.26;100407.94;5064526;28;20394;-16
2023/07/10 03:26:39;;;;;;;15.65;7.57;;;;;;;18.71;77.72;100402.59;5064411;28;20437;-16
2023/07/10 03:29:13;;;;;;;13.48;7.97;;;;;;;18.88;77.07;100397.81;5063997;28;20048;-16
2023/07/10 03:31:39;;;;;;;37.85;20.77;;;;;;;18.62;77.50;100403.09;5064241;28;20029;-17
2023/07/10 03:34:05;;;;;;;44.58;23.40;;;;;;;18.67;77.52;100410.41;5064495;28;20032;-17
2023/07/10 03:36:31;;;;;;;30.30;17.90;;;;;;;18.74;76.99;100404.78;5064239;28;20111;-16
2023/07/10 03:38:58;;;;;;;29.13;15.15;;;;;;;18.73;77.66;100408.53;5064226;28;20134;-17
2023/07/10 03:41:24;;;;;;;21.30;13.07;;;;;;;18.54;79.24;100413.59;5064246;28;20504;-17
2023/07/10 03:43:49;;;;;;;21.10;13.70;;;;;;;18.53;79.26;100418.19;5064004;28;20035;-17
2023/07/10 03:46:18;;;;;;;35.15;18.77;;;;;;;18.62;78.79;100415.78;5064430;28;20028;-16
2023/07/10 03:48:44;;;;;;;36.05;18.40;;;;;;;18.62;79.39;100410.41;5064064;28;20028;-17
2023/07/10 03:51:09;;;;;;;30.25;15.75;;;;;;;18.85;78.58;100420.75;5064024;28;20033;-16
2023/07/10 03:53:35;;;;;;;14.52;9.63;;;;;;;18.77;79.09;100421.25;5064389;28;20032;-16
2023/07/10 03:56:00;;;;;;;12.27;7.22;;;;;;;18.73;79.96;100422.84;5063967;28;20475;-16
2023/07/10 03:58:28;;;;;;;10.48;6.78;;;;;;;18.61;80.82;100419.56;5064023;28;20039;-16
2023/07/10 04:00:55;;;;;;;;;;;;;;;18.85;79.06;100407.25;5064578;28;20064;-16
2023/07/10 04:03:24;;;;;;;9.82;6.43;;;;;;;18.78;80.10;100430.19;5063899;28;19912;-17
2023/07/10 04:05:52;;;;;;;13.57;7.57;;;;;;;18.93;79.69;100437.56;5064242;28;20111;-17
2023/07/10 04:08:19;;;;;;;11.18;7.38;;;;;;;18.99;80.04;100431.09;5066623;28;20024;-20
2023/07/10 04:10:52;;;;;;;10.90;7.18;;;;;;;18.96;79.68;100434.31;5067819;28;20029;-17
2023/07/10 04:13:18;;;;;;;9.82;6.70;;;;;;;18.94;80.62;100422.94;5067706;28;20032;-21
2023/07/10 04:16:02;;;;;;;9.70;6.65;;;;;;;18.82;82.35;100437.53;5068008;28;20042;-16
2023/07/10 04:18:35;;;;;;;11.45;6.75;;;;;;;19.07;81.29;100446.78;5068091;28;20056;-17
2023/07/10 04:21:03;;;;;;;10.65;6.72;;;;;;;19.36;79.22;100435.50;5067631;28;20016;-16
2023/07/10 04:23:31;;;;;;;14.98;6.80;;;;;;;19.60;79.38;100449.31;5067714;28;20040;-16
2023/07/10 04:25:59;;;;;;;9.65;6.60;;;;;;;19.31;82.34;100439.00;5067908;28;20029;-16
2023/07/10 04:28:25;;;;;;;10.25;6.85;;;;;;;19.54;81.06;100443.09;5066684;28;20039;-16
2023/07/10 04:30:51;;;;;;;13.65;7.10;;;;;;;19.81;79.23;100450.97;5067409;28;20028;-17
2023/07/10 04:33:18;;;;;;;11.27;7.65;;;;;;;19.79;78.71;100439.59;5067684;28;20103;-17
2023/07/10 04:35:50;;;;;;;8.70;6.13;;;;;;;20.12;78.36;100450.13;5067565;28;20032;-17
2023/07/10 04:38:18;;;;;;;10.35;7.28;;;;;;;20.29;76.86;100453.38;5067527;28;20048;-17
2023/07/10 04:41:01;;;;;;;14.18;7.50;;;;;;;20.41;75.67;100444.91;5067471;28;20025;-17
2023/07/10 04:43:30;;;;;;;12.48;6.75;;;;;;;20.35;76.95;100446.84;5067055;28;20107;-16
2023/07/10 04:46:00;;;;;;;9.48;6.30;;;;;;;20.59;75.13;100448.97;5067305;28;20097;-16
2023/07/10 04:48:26;;;;;;;8.30;6.28;;;;;;;20.32;77.20;100447.38;5066925;28;20028;-16
2023/07/10 04:50:53;;;;;;;11.48;6.90;;;;;;;20.70;75.56;100458.69;5067211;28;20035;-16
2023/07/10 04:53:20;;;;;;;11.32;7.03;;;;;;;20.75;76.09;100455.16;5067017;28;20021;-17
2023/07/10 04:55:48;;;;;;;11.55;7.80;;;;;;;20.93;74.49;100445.59;5067207;28;20813;-17
2023/07/10 04:58:13;;;;;;;11.85;7.65;;;;;;;21.13;74.35;100452.81;5066910;28;20028;-16
2023/07/10 05:00:39;;;;;;;12.73;7.53;;;;;;;21.16;73.84;100454.94;5067169;28;20037;-16
2023/07/10 05:03:06;;;;;;;9.60;6.32;;;;;;;21.19;74.03;100448.97;5066917;28;20447;-17
2023/07/10 05:05:32;;;;;;;11.27;7.28;;;;;;;21.25;74.05;100443.25;5067024;28;20025;-16
2023/07/10 05:07:58;;;;;;;9.45;6.32;;;;;;;21.47;73.98;100439.31;5067049;28;20840;-16
2023/07/10 05:10:27;;;;;;;9.40;6.10;;;;;;;21.79;73.17;100457.00;5066582;28;20036;-16
2023/07/10 05:12:54;;;;;;;11.07;5.82;;;;;;;21.83;73.13;100442.56;5066588;28;20029;-16
2023/07/10 05:15:20;;;;;;;9.32;5.28;;;;;;;21.95;71.65;100446.81;5048845;28;20783;-16
2023/07/10 05:17:46;;;;;;;8.93;5.85;;;;;;;22.06;72.46;100448.31;5066131;28;20497;-17
2023/07/10 05:20:12;;;;;;;6.22;5.10;;;;;;;22.16;70.94;100450.13;5066595;28;20471;-16
2023/07/10 05:22:41;;;;;;;7.22;5.43;;;;;;;22.38;69.68;100453.19;5066270;28;20021;-16
2023/07/10 05:25:07;;;;;;;9.40;4.50;;;;;;;22.56;66.60;100453.56;5066270;28;20120;-17
2023/07/10 05:27:33;;;;;;;8.57;4.88;;;;;;;22.67;64.73;100455.03;5066216;28;20055;-16
2023/07/10 05:29:58;;;;;;;7.32;4.70;;;;;;;22.87;64.59;100454.78;5066274;28;20033;-16
2023/07/10 05:32:24;;;;;;;8.13;4.95;;;;;;;23.00;63.12;100452.44;5066262;28;20507;-17
2023/07/10 05:34:49;;;;;;;7.55;4.75;;;;;;;23.17;62.56;100451.97;5066320;28;20033;-17
2023/07/10 05:37:15;;;;;;;7.78;4.55;;;;;;;23.15;62.94;100456.91;5065342;28;20125;-17
2023/07/10 05:39:40;;;;;;;7.85;4.90;;;;;;;23.26;62.72;100451.03;5066294;28;20031;-17
2023/07/10 05:42:07;;;;;;;8.88;4.93;;;;;;;23.41;63.36;100446.47;5065970;28;20028;-16
2023/07/10 05:44:32;;;;;;;10.23;5.13;;;;;;;23.49;63.77;100431.38;5065895;28;20101;-18
2023/07/10 05:46:58;;;;;;;9.23;4.90;;;;;;;23.79;63.35;100451.88;5066034;28;20028;-18
2023/07/10 05:49:25;;;;;;;7.85;5.00;;;;;;;23.77;62.34;100454.91;5065542;28;20032;-16
2023/07/10 05:51:52;;;;;;;8.07;5.18;;;;;;;23.92;63.67;100453.03;5065860;28;20028;-20
2023/07/10 05:54:19;;;;;;;7.65;5.03;;;;;;;24.05;62.56;100458.50;5065752;28;20036;-18
2023/07/10 05:56:48;;;;;;;6.40;4.80;;;;;;;24.22;59.54;100471.56;5065794;28;20031;-19
2023/07/10 05:59:15;;;;;;;8.50;5.35;;;;;;;24.16;59.34;100463.78;5065568;28;20509;-18
2023/07/10 06:01:40;;;;;;;8.02;5.00;;;;;;;24.34;59.59;100468.34;5065637;28;20144;-17
2023/07/10 06:04:06;;;;;;;9.13;4.97;;;;;;;24.39;59.20;100470.16;5065594;28;20111;-18
2023/07/10 06:06:32;;;;;;;6.68;4.57;;;;;;;24.42;57.72;100459.47;5065531;28;20031;-16
2023/07/10 06:08:57;;;;;;;7.53;4.68;;;;;;;24.53;58.50;100465.56;5065492;28;20029;-16
2023/07/10 06:11:23;;;;;;;6.40;4.80;;;;;;;24.73;57.28;100460.81;5065839;28;20027;-17
2023/07/10 06:13:48;;;;;;;7.90;5.10;;;;;;;24.93;57.69;100457.66;5065473;28;20086;-18
2023/07/10 06:16:14;;;;;;;7.72;4.63;;;;;;;24.85;56.09;100461.91;5065405;28;20029;-17
2023/07/10 06:18:40;;;;;;;6.93;4.80;;;;;;;25.05;55.96;100466.13;5065124;28;20054;-18
2023/07/10 06:21:06;;;;;;;9.15;4.82;;;;;;;25.03;57.29;100467.53;5065029;28;20020;-18
2023/07/10 06:23:31;;;;;;;7.18;4.38;;;;;;;25.19;56.34;100462.53;5065286;28;20028;-17
2023/07/10 06:26:01;;;;;;;7.38;4.43;;;;;;;25.22;54.63;100448.31;5081366;28;20016;-18
2023/07/10 06:28:30;;;;;;;7.78;4.50;;;;;;;25.44;53.88;100458.47;5085250;28;20043;-18
2023/07/10 06:31:02;;;;;;;6.25;4.30;;;;;;;25.64;51.73;100455.25;5084473;28;20028;-17
2023/07/10 06:33:29;;;;;;;7.90;4.90;;;;;;;25.67;52.07;100459.28;5085112;28;20065;-18
2023/07/10 06:35:54;;;;;;;7.60;4.50;;;;;;;25.75;50.78;100455.00;5084972;28;20024;-18
2023/07/10 06:38:21;;;;;;;7.85;4.07;;;;;;;25.89;51.74;100450.25;5085467;28;20055;-17
2023/07/10 06:40:50;;;;;;;6.82;4.47;;;;;;;26.05;51.67;100454.25;5085648;28;20032;-17
2023/07/10 06:43:17;;;;;;;7.72;4.15;;;;;;;25.98;50.51;100437.47;5084806;28;20108;-19
2023/07/10 06:45:46;;;;;;;6.63;3.87;;;;;;;26.42;49.93;100452.16;5085035;28;20043;-18
2023/07/10 06:48:13;;;;;;;7.78;4.13;;;;;;;26.46;49.43;100453.13;5085091;28;20366;-17
2023/07/10 06:50:38;;;;;;;6.57;4.10;;;;;;;26.47;49.25;100448.47;5084896;28;20034;-19
2023/07/10 06:53:10;;;;;;;8.70;4.30;;;;;;;26.76;48.56;100447.13;5085171;28;20036;-17
2023/07/10 06:55:44;;;;;;;5.15;3.90;;;;;;;26.76;48.39;100447.91;5085071;28;20527;-17
2023/07/10 06:58:10;;;;;;;6.82;4.00;;;;;;;26.81;47.82;100441.50;5084754;28;20043;-17
2023/07/10 07:00:36;;;;;;;6.97;4.45;;;;;;;27.06;48.02;100440.72;5084594;28;20519;-17
2023/07/10 07:03:03;;;;;;;6.90;4.20;;;;;;;27.31;45.93;100421.13;5084719;28;20024;-17
2023/07/10 07:05:29;;;;;;;;;;;;;;;27.41;44.90;100438.03;5085284;28;20050;-18
2023/07/10 07:07:59;;;;;;;6.38;3.60;;;;;;;27.43;44.88;100432.22;5084614;28;20323;-17
2023/07/10 07:10:24;;;;;;;5.90;3.63;;;;;;;27.43;46.15;100426.75;5084653;28;20050;-17
2023/07/10 07:12:49;;;;;;;5.95;3.97;;;;;;;27.59;44.38;100422.38;5084660;28;20693;-22
2023/07/10 07:15:15;;;;;;;6.85;3.78;;;;;;;27.78;45.58;100438.44;5084118;28;20092;-17
2023/07/10 07:17:42;;;;;;;6.70;3.80;;;;;;;27.85;44.30;100443.47;5084818;28;20050;-18
2023/07/10 07:20:08;;;;;;;;;;;;;;;27.89;44.46;100441.69;5085242;28;20139;-17
2023/07/10 07:22:33;;;;;;;6.07;3.90;;;;;;;27.94;44.05;100427.81;5084938;28;19999;-17
2023/07/10 07:24:59;;;;;;;5.57;3.13;;;;;;;28.21;42.41;100442.22;5084168;28;20147;-17
2023/07/10 07:27:24;;;;;;;6.57;3.90;;;;;;;28.17;42.13;100447.56;5084425;28;20084;-17
2023/07/10 07:29:51;;;;;;;7.80;4.10;;;;;;;28.42;42.34;100453.25;5085104;28;20060;-16
2023/07/10 07:32:18;;;;;;;7.37;3.73;;;;;;;28.64;40.42;100449.47;5083531;28;20502;-17
2023/07/10 07:34:45;;;;;;;8.25;3.75;;;;;;;28.48;42.01;100451.16;5083991;28;20277;-19
2023/07/10 07:37:11;;;;;;;8.23;3.80;;;;;;;28.74;41.28;100438.13;5084715;28;20027;-19
2023/07/10 07:39:36;;;;;;;7.88;3.83;;;;;;;28.82;38.88;100436.47;5084027;28;20032;-19
2023/07/10 07:42:02;;;;;;;7.90;4.00;;;;;;;28.62;40.68;100432.53;5086949;28;20089;-18
2023/07/10 07:44:28;;;;;;;7.35;4.10;;;;;;;28.69;40.01;100441.06;5088450;28;20028;-17
2023/07/10 07:46:57;;;;;;;8.82;4.47;;;;;;;29.00;39.66;100439.91;5053677;28;20028;-17
2023/07/10 07:49:24;;;;;;;7.00;4.10;;;;;;;28.92;41.58;100438.81;5076112;28;20039;-19
2023/07/10 07:51:52;;;;;;;5.18;3.75;;;;;;;29.12;39.70;100441.94;5068540;28;20036;-18
2023/07/10 07:54:18;;;;;;;8.30;3.97;;;;;;;29.11;38.68;100430.13;5068562;28;20544;-18
2023/07/10 07:56:43;;;;;;;6.82;3.53;;;;;;;29.07;39.10;100426.41;5068379;28;20244;-19
2023/07/10 07:59:09;;;;;;;6.45;3.88;;;;;;;29.25;38.49;100425.16;5068363;28;20021;-18
2023/07/10 08:01:35;;;;;;;6.32;4.25;;;;;;;29.35;38.51;100429.44;5068287;28;20086;-18
2023/07/10 08:04:00;;;;;;;8.27;3.22;;;;;;;29.39;37.06;100424.88;5074609;28;20020;-17
2023/07/10 08:06:31;;;;;;;5.68;3.55;;;;;;;29.33;38.30;100414.44;5088271;28;20101;-17
2023/07/10 08:08:57;;;;;;;5.90;3.70;;;;;;;29.54;38.84;100397.91;5087681;28;20031;-17
2023/07/10 08:11:23;;;;;;;6.22;3.75;;;;;;;29.90;36.37;100421.97;5087416;28;20113;-23
2023/07/10 08:13:48;;;;;;;6.72;3.75;;;;;;;30.25;36.33;100421.56;5087266;28;20069;-19
2023/07/10 08:16:14;;;;;;;6.93;3.50;;;;;;;30.24;36.17;100426.25;5087916;28;20184;-20
2023/07/10 08:18:42;;;;;;;5.90;3.50;;;;;;;30.03;36.98;100418.09;5088013;28;20453;-17
2023/07/10 08:21:11;;;;;;;5.88;3.22;;;;;;;30.27;37.69;100413.75;5088015;28;20035;-18
2023/07/10 08:23:39;;;;;;;6.35;3.63;;;;;;;30.49;37.22;100415.28;5087517;28;20189;-18
2023/07/10 08:26:06;;;;;;;5.72;3.53;;;;;;;30.87;35.28;100407.75;5087970;28;20034;-17
2023/07/10 08:28:34;;;;;;;5.10;3.70;;;;;;;30.99;35.18;100405.78;5087427;28;20051;-18
2023/07/10 08:31:00;;;;;;;5.68;3.33;;;;;;;30.83;35.28;100405.72;5088008;28;20286;-18
2023/07/10 08:33:26;;;;;;;6.53;3.63;;;;;;;30.95;35.59;100402.13;5087887;28;20733;-18
2023/07/10 08:36:00;;;;;;;5.63;3.67;;;;;;;31.09;36.71;100387.97;5087761;28;20036;-18
2023/07/10 08:38:25;;;;;;;8.40;3.67;;;;;;;31.03;34.69;100395.69;5087781;28;20159;-20
2023/07/10 08:40:54;;;;;;;7.30;3.80;;;;;;;30.86;36.42;100378.63;5087521;28;20609;-17
2023/07/10 08:43:37;;;;;;;5.40;3.08;;;;;;;31.02;34.43;100372.06;5087733;28;20028;-19
2023/07/10 08:46:10;;;;;;;5.03;3.05;;;;;;;31.18;33.37;100372.13;5087384;28;20024;-17
2023/07/10 08:48:49;;;;;;;13.02;3.85;;;;;;;31.50;35.29;100380.47;5087645;28;20047;-18
2023/07/10 08:51:24;;;;;;;7.15;3.50;;;;;;;31.32;34.54;100387.44;5087284;28;20559;-18
2023/07/10 08:54:04;;;;;;;5.43;3.38;;;;;;;31.52;34.70;100388.41;5086267;28;20016;-17
2023/07/10 08:56:50;;;;;;;5.55;3.25;;;;;;;31.74;32.84;100387.81;5087357;28;20024;-20
2023/07/10 08:59:34;;;;;;;6.32;3.42;;;;;;;31.59;32.66;100377.56;5086778;28;20168;-17
2023/07/10 09:02:01;;;;;;;5.15;2.35;;;;;;;31.53;31.10;100385.28;5087198;28;20016;-18
2023/07/10 09:04:29;;;;;;;8.13;3.38;;;;;;;31.18;32.11;100388.66;5086692;28;20574;-17
2023/07/10 09:07:00;;;;;;;5.20;3.00;;;;;;;31.42;32.73;100381.41;5086906;28;20032;-19
2023/07/10 09:09:38;;;;;;;4.93;2.80;;;;;;;31.44;31.88;100385.44;5086921;28;20028;-20
2023/07/10 09:12:27;;;;;;;5.20;3.00;;;;;;;31.74;31.49;100384.25;5086838;28;20596;-18
2023/07/10 09:15:01;;;;;;;4.90;3.03;;;;;;;31.91;31.41;100364.59;5087176;28;20416;-17
2023/07/10 09:17:49;;;;;;;7.38;2.70;;;;;;;31.96;31.17;100369.84;5086557;28;20031;-20
2023/07/10 09:20:19;;;;;;;4.75;3.22;;;;;;;32.00;31.39;100373.53;5086654;28;20148;-17
2023/07/10 09:23:11;;;;;;;4.93;2.70;;;;;;;31.76;31.54;100366.19;5086503;28;20032;-17
2023/07/10 09:25:37;;;;;;;3.42;2.40;;;;;;;32.01;30.09;100377.88;5084877;28;20574;-17
2023/07/10 09:28:03;;;;;;;4.97;2.80;;;;;;;31.99;30.40;100360.06;5086096;28;20052;-18
2023/07/10 09:31:04;;;;;;;5.45;2.90;;;;;;;32.18;30.20;100365.69;5086336;28;20078;-19
2023/07/10 09:33:44;;;;;;;4.55;2.65;;;;;;;31.96;30.90;100364.34;5086632;28;20035;-19
2023/07/10 09:36:20;;;;;;;6.22;2.80;;;;;;;32.08;29.88;100355.19;5086107;28;20036;-18
2023/07/10 09:38:49;;;;;;;4.78;2.65;;;;;;;32.23;29.88;100361.84;5086402;28;20527;-19
2023/07/10 09:41:27;;;;;;;5.70;2.90;;;;;;;32.30;30.47;100373.03;5086185;28;20101;-18
2023/07/10 09:44:03;;;;;;;4.15;2.60;;;;;;;32.23;29.39;100346.06;5086241;28;20157;-18
2023/07/10 09:46:31;;;;;;;4.57;2.70;;;;;;;32.29;29.30;100354.88;5086502;28;20546;-18
2023/07/10 09:48:59;;;;;;;4.85;2.95;;;;;;;32.55;29.54;100356.25;5086035;28;20024;-18
2023/07/10 09:51:26;;;;;;;6.15;3.20;;;;;;;32.58;30.33;100361.06;5086373;28;20028;-18
2023/07/10 09:53:53;;;;;;;5.35;3.00;;;;;;;32.66;29.15;100348.22;5086238;28;20577;-18
2023/07/10 09:56:35;;;;;;;5.00;3.13;;;;;;;32.64;30.04;100337.53;5086010;28;20024;-17
2023/07/10 09:59:16;;;;;;;3.90;2.75;;;;;;;32.53;29.24;100334.53;5086396;28;20035;-18
2023/07/10 10:01:42;;;;;;;5.68;2.97;;;;;;;32.82;30.06;100337.91;5085678;28;20122;-18
2023/07/10 10:04:11;;;;;;;5.17;3.00;;;;;;;32.76;29.03;100344.88;5086063;28;20111;-18
2023/07/10 10:06:41;;;;;;;5.90;2.97;;;;;;;32.49;28.80;100324.53;5085790;28;20424;-18
2023/07/10 10:09:22;;;;;;;3.55;2.60;;;;;;;33.04;29.17;100333.63;5085816;28;20027;-17
2023/07/10 10:11:51;;;;;;;6.20;3.05;;;;;;;33.10;28.96;100315.63;5085776;28;20608;-17
2023/07/10 10:14:30;;;;;;;5.75;2.90;;;;;;;32.88;28.60;100319.88;5085590;28;20028;-20
2023/07/10 10:16:59;;;;;;;6.60;3.70;;;;;;;32.99;29.14;100314.56;5085886;28;20440;-23
2023/07/10 10:19:31;;;;;;;4.57;2.95;;;;;;;33.20;29.86;100326.06;5085487;28;20028;-20
2023/07/10 10:21:56;;;;;;;4.53;2.85;;;;;;;33.37;28.10;100321.22;5085213;28;20121;-19
2023/07/10 10:24:24;;;;;;;7.97;3.17;;;;;;;33.23;29.03;100319.78;5085658;28;20510;-18
2023/07/10 10:26:59;;;;;;;6.65;2.75;;;;;;;33.55;28.13;100314.06;5085370;28;20028;-17
2023/07/10 10:29:40;;;;;;;5.20;3.10;;;;;;;33.95;27.69;100309.16;5085508;28;20052;-21
2023/07/10 10:32:08;;;;;;;5.32;2.30;;;;;;;33.98;26.60;100314.75;5084732;28;20768;-17
2023/07/10 10:34:43;;;;;;;4.25;2.60;;;;;;;33.95;26.92;100307.19;5082272;28;20031;-17
2023/07/10 10:37:50;;;;;;;3.65;2.53;;;;;;;34.18;25.93;100311.91;5085048;28;20024;-18
2023/07/10 10:40:27;;;;;;;5.28;3.00;;;;;;;34.08;26.69;100313.31;5085301;28;20078;-19
2023/07/10 10:43:03;;;;;;;3.70;2.50;;;;;;;34.00;26.07;100295.81;5085764;28;20048;-18
2023/07/10 10:45:42;;;;;;;7.73;2.60;;;;;;;34.32;26.67;100312.09;5084874;28;20032;-18
2023/07/10 10:48:23;;;;;;;6.55;3.13;;;;;;;34.07;26.46;100299.88;5085338;28;20024;-18
2023/07/10 10:51:00;;;;;;;5.18;3.42;;;;;;;34.25;27.13;100298.19;5085123;28;20023;-18
2023/07/10 10:53:44;;;;;;;5.90;2.50;;;;;;;34.21;26.47;100294.56;5085049;28;20032;-19
2023/07/10 10:56:24;;;;;;;6.35;2.97;;;;;;;34.16;26.44;100289.34;5085065;28;20028;-17
2023/07/10 10:59:27;;;;;;;6.13;3.47;;;;;;;34.38;26.54;100290.44;5084752;28;20036;-18
2023/07/10 11:02:14;;;;;;;3.63;2.60;;;;;;;34.52;26.07;100274.00;5084897;28;20131;-19
2023/07/10 11:04:45;;;;;;;6.18;2.92;;;;;;;34.76;26.30;100280.25;5084780;28;20040;-17
2023/07/10 11:07:13;;;;;;;4.75;2.60;;;;;;;35.01;25.13;100269.44;5084684;28;20380;-18
2023/07/10 11:09:59;;;;;;;3.90;2.45;;;;;;;35.26;25.65;100266.13;5084590;28;20085;-18
2023/07/10 11:12:28;;;;;;;6.88;2.60;;;;;;;34.84;26.45;100258.94;5085097;28;20061;-18
2023/07/10 11:15:01;;;;;;;5.10;2.95;;;;;;;35.64;23.74;100266.84;5084871;28;20611;-18
2023/07/10 11:17:29;;;;;;;5.93;2.80;;;;;;;35.77;24.03;100268.16;5083937;28;20417;-18
2023/07/10 11:19:57;;;;;;;4.28;2.60;;;;;;;35.73;23.68;100267.34;5084781;28;20024;-18
2023/07/10 11:22:35;;;;;;;3.97;2.30;;;;;;;35.79;23.14;100268.56;5084156;28;20573;-17
2023/07/10 11:25:02;;;;;;;3.22;2.20;;;;;;;35.30;24.60;100258.66;5083042;28;20032;-17
2023/07/10 11:27:32;;;;;;;;;;;;;;;34.94;24.80;100258.25;5082948;28;20111;-18
2023/07/10 11:30:07;;;;;;;3.78;2.50;;;;;;;35.30;24.20;100261.41;5084037;28;19915;-19
2023/07/10 11:32:36;;;;;;;5.75;2.45;;;;;;;35.42;23.36;100250.03;5084284;28;20410;-17